Time;durP1;ratioP1;P1;durP2;ratioP2;P2;SDS_P1;SDS_P2;PMS_P1;PMS_P2;Temp;Humidity;BMP_temperature;BMP_pressure;BME280_temperature;BME280_humidity;BME280_pressure;Samples;Min_cycle;Max_cycle;Signal;HPM_P1;HPM_P2
2024/02/23 00:01:23;;;;;;;8.10;4.40;;;;;;;6.85;65.32;94779.09;106849;1275;22553;-73
2024/02/23 00:03:52;;;;;;;5.40;3.90;;;;;;;6.86;65.61;94779.09;107021;1275;25229;-73
2024/02/23 00:06:22;;;;;;;8.60;4.00;;;;;;;6.79;65.97;94774.46;106922;1275;24236;-73
2024/02/23 00:08:53;;;;;;;7.30;4.00;;;;;;;6.77;66.05;94766.11;106627;1275;22657;-73
2024/02/23 00:11:21;;;;;;;6.80;4.10;;;;;;;6.77;66.09;94761.23;106578;1275;24201;-73
2024/02/23 00:13:50;;;;;;;6.80;3.90;;;;;;;6.69;67.37;94767.84;106628;1275;24229;-73
2024/02/23 00:16:19;;;;;;;5.90;4.30;;;;;;;6.59;67.07;94762.58;106590;1275;22778;-73
2024/02/23 00:18:47;;;;;;;5.70;4.60;;;;;;;6.52;67.71;94763.74;106628;1275;25284;-73
2024/02/23 00:21:16;;;;;;;7.50;4.40;;;;;;;6.44;67.98;94759.33;106428;1275;22641;-73
2024/02/23 00:23:44;;;;;;;7.10;4.70;;;;;;;6.35;68.79;94764.71;106578;1275;22536;-73
2024/02/23 00:26:13;;;;;;;6.30;3.60;;;;;;;6.27;68.65;94757.84;106546;1275;22735;-73
2024/02/23 00:28:41;;;;;;;6.60;4.40;;;;;;;6.23;68.63;94751.10;106625;1275;22547;-73
2024/02/23 00:31:09;;;;;;;6.80;4.40;;;;;;;6.21;69.12;94746.59;106770;1275;22524;-73
2024/02/23 00:33:42;;;;;;;7.10;3.80;;;;;;;6.29;68.47;94746.45;106822;1275;24228;-73
2024/02/23 00:36:10;;;;;;;4.50;3.60;;;;;;;6.56;67.49;94743.40;106445;1275;25303;-73
2024/02/23 00:38:38;;;;;;;6.00;3.30;;;;;;;6.65;67.70;94743.78;106701;1275;25357;-73
2024/02/23 00:41:07;;;;;;;5.80;3.70;;;;;;;6.71;67.64;94741.73;106980;1275;22538;-73
2024/02/23 00:43:40;;;;;;;6.00;4.10;;;;;;;6.73;67.40;94741.71;106954;1275;25511;-73
2024/02/23 00:46:09;;;;;;;6.80;3.40;;;;;;;6.73;68.38;94738.39;106947;1275;24068;-73
2024/02/23 00:48:37;;;;;;;5.80;3.30;;;;;;;6.66;68.07;94737.65;106659;1265;22737;-73
2024/02/23 00:51:05;;;;;;;6.60;3.50;;;;;;;6.58;68.41;94742.15;106632;1275;25295;-73
2024/02/23 00:53:33;;;;;;;4.60;3.00;;;;;;;6.51;68.86;94736.66;106575;1275;23889;-73
2024/02/23 00:56:02;;;;;;;6.20;3.60;;;;;;;6.37;70.59;94742.66;106616;1275;22521;-73
2024/02/23 00:58:30;;;;;;;5.50;3.70;;;;;;;6.28;69.94;94751.35;106590;1275;25258;-73
2024/02/23 01:00:59;;;;;;;8.10;3.70;;;;;;;6.23;70.05;94742.88;106576;1275;22633;-73
2024/02/23 01:03:27;;;;;;;5.50;3.10;;;;;;;6.19;70.78;94740.15;106679;1275;26504;-73
2024/02/23 01:05:56;;;;;;;6.60;3.80;;;;;;;6.12;70.85;94746.21;106615;1275;25220;-73
2024/02/23 01:08:24;;;;;;;5.80;3.70;;;;;;;6.08;70.82;94743.64;106813;1275;22520;-73
2024/02/23 01:10:52;;;;;;;6.40;3.70;;;;;;;6.07;70.86;94741.04;106658;1263;24177;-73
2024/02/23 01:13:21;;;;;;;6.60;4.20;;;;;;;6.05;70.91;94739.66;106686;1275;25312;-73
2024/02/23 01:15:49;;;;;;;7.10;4.00;;;;;;;6.03;70.90;94742.31;106615;1275;22635;-73
2024/02/23 01:18:18;;;;;;;5.40;3.70;;;;;;;5.99;71.27;94741.34;106842;1275;22522;-73
2024/02/23 01:20:46;;;;;;;5.50;3.30;;;;;;;5.93;71.51;94739.30;106987;1265;24057;-73
2024/02/23 01:23:15;;;;;;;5.10;3.10;;;;;;;5.87;71.53;94738.48;106764;1275;25429;-73
2024/02/23 01:25:43;;;;;;;8.30;4.30;;;;;;;5.86;71.84;94736.06;106644;1275;22531;-73
2024/02/23 01:28:11;;;;;;;5.70;3.30;;;;;;;5.85;71.72;94734.69;106873;1275;24493;-73
2024/02/23 01:30:39;;;;;;;6.00;2.70;;;;;;;5.82;71.82;94728.44;106602;1275;22524;-73
2024/02/23 01:33:08;;;;;;;4.10;3.30;;;;;;;5.77;72.34;94732.19;106594;1275;22526;-73
2024/02/23 01:35:36;;;;;;;4.60;3.30;;;;;;;5.73;72.94;94735.21;106671;1275;23948;-72
2024/02/23 01:38:05;;;;;;;4.00;3.10;;;;;;;5.69;73.16;94731.42;106607;1275;22611;-73
2024/02/23 01:40:33;;;;;;;5.10;3.10;;;;;;;5.68;73.64;94728.64;106578;1275;24756;-73
2024/02/23 01:43:05;;;;;;;23.60;10.50;;;;;;;5.66;73.50;94724.31;106590;1275;25221;-73
2024/02/23 01:45:33;;;;;;;6.50;3.70;;;;;;;5.62;73.62;94728.02;106836;1275;22525;-73
2024/02/23 01:48:02;;;;;;;6.20;3.70;;;;;;;5.58;73.90;94723.89;106579;1275;25487;-73
2024/02/23 01:50:31;;;;;;;6.50;3.40;;;;;;;5.54;73.84;94720.81;106847;1275;22528;-73
2024/02/23 01:53:02;;;;;;;4.80;3.00;;;;;;;5.50;74.15;94723.98;106681;1275;22517;-73
2024/02/23 01:55:32;;;;;;;11.10;6.80;;;;;;;5.53;72.81;94722.73;106634;1275;23030;-73
2024/02/23 01:58:04;;;;;;;20.80;10.40;;;;;;;5.63;73.63;94715.09;106687;1275;22640;-73
2024/02/23 02:00:36;;;;;;;12.00;7.30;;;;;;;5.67;73.57;94710.52;106591;1275;22532;-73
2024/02/23 02:03:05;;;;;;;16.00;7.80;;;;;;;5.69;73.47;94716.59;106667;1275;24293;-73
2024/02/23 02:05:39;;;;;;;8.90;5.60;;;;;;;5.70;73.39;94710.65;106669;1275;22881;-73
2024/02/23 02:08:07;;;;;;;11.30;5.90;;;;;;;5.68;73.40;94710.84;106676;1275;24183;-73
2024/02/23 02:10:36;;;;;;;7.70;5.30;;;;;;;5.66;73.51;94712.10;106612;1275;22531;-73
2024/02/23 02:13:05;;;;;;;6.60;4.60;;;;;;;5.72;73.22;94727.19;106661;1271;25357;-73
2024/02/23 02:15:34;;;;;;;6.00;4.20;;;;;;;5.74;73.08;94718.78;106620;1275;23888;-73
2024/02/23 02:18:02;;;;;;;6.20;4.20;;;;;;;5.75;72.90;94717.55;106559;1275;25293;-73
2024/02/23 02:20:33;;;;;;;6.90;4.00;;;;;;;5.76;73.04;94716.85;106891;1275;22783;-73
2024/02/23 02:23:03;;;;;;;7.50;4.50;;;;;;;5.81;72.38;94711.35;106746;1275;25463;-73
2024/02/23 02:25:31;;;;;;;4.50;3.30;;;;;;;5.90;72.08;94710.70;106715;1275;22658;-73
2024/02/23 02:27:59;;;;;;;4.10;3.50;;;;;;;6.06;69.92;94705.80;106685;1275;24234;-73
2024/02/23 02:30:28;;;;;;;5.50;3.60;;;;;;;6.30;69.44;94706.45;106690;1275;22599;-73
2024/02/23 02:32:56;;;;;;;6.10;4.40;;;;;;;6.35;69.44;94704.63;106544;1275;24214;-73
2024/02/23 02:35:24;;;;;;;7.10;3.60;;;;;;;6.31;69.24;94707.48;106831;1275;23125;-73
2024/02/23 02:37:52;;;;;;;6.80;4.00;;;;;;;6.27;69.31;94709.11;106854;1275;25549;-73
2024/02/23 02:40:21;;;;;;;10.10;3.70;;;;;;;6.25;69.55;94711.95;106712;1275;25276;-73
2024/02/23 02:42:49;;;;;;;6.90;4.30;;;;;;;6.22;69.50;94720.38;106925;1275;22524;-73
2024/02/23 02:45:17;;;;;;;5.90;3.70;;;;;;;6.23;68.83;94718.27;106851;1275;24395;-73
2024/02/23 02:47:48;;;;;;;8.90;3.70;;;;;;;6.29;67.21;94705.95;106931;1275;22518;-73
2024/02/23 02:50:16;;;;;;;5.30;3.90;;;;;;;6.40;67.43;94708.04;106917;1275;22569;-73
2024/02/23 02:52:44;;;;;;;15.10;8.00;;;;;;;6.48;67.05;94698.82;106798;1271;24228;-73
2024/02/23 02:55:13;;;;;;;13.60;7.20;;;;;;;6.48;66.64;94697.05;106981;1275;22523;-73
2024/02/23 02:57:41;;;;;;;7.30;4.60;;;;;;;6.46;66.93;94692.38;106758;1275;22943;-73
2024/02/23 03:00:10;;;;;;;6.90;4.20;;;;;;;6.40;66.38;94702.44;106604;1275;22514;-73
2024/02/23 03:02:39;;;;;;;6.70;4.20;;;;;;;6.43;66.34;94701.15;106607;1275;22524;-73
2024/02/23 03:05:07;;;;;;;6.80;4.00;;;;;;;6.39;66.57;94703.34;106576;1275;22645;-73
2024/02/23 03:07:36;;;;;;;5.60;3.90;;;;;;;6.39;65.93;94695.48;106409;1275;24381;-73
2024/02/23 03:10:05;;;;;;;5.60;3.60;;;;;;;6.43;65.60;94701.68;106724;1275;25458;-73
2024/02/23 03:12:33;;;;;;;5.30;3.50;;;;;;;6.48;63.12;94703.02;106747;1275;22538;-73
2024/02/23 03:15:05;;;;;;;5.60;3.80;;;;;;;6.67;63.45;94694.48;106704;1275;25507;-73
2024/02/23 03:17:33;;;;;;;6.30;3.60;;;;;;;6.71;63.78;94693.69;106621;1275;23712;-73
2024/02/23 03:20:10;;;;;;;6.90;3.50;;;;;;;6.70;62.88;94694.58;106601;1275;24204;-73
2024/02/23 03:22:39;;;;;;;6.80;3.70;;;;;;;6.66;63.08;94692.73;106644;1275;23968;-73
2024/02/23 03:25:08;;;;;;;5.20;3.50;;;;;;;6.76;61.26;94698.85;106591;1275;25305;-73
2024/02/23 03:27:37;;;;;;;4.80;3.30;;;;;;;6.84;61.76;94689.95;106672;1275;24265;-73
2024/02/23 03:30:08;;;;;;;4.70;3.50;;;;;;;6.91;60.26;94685.29;106820;1275;25354;-73
2024/02/23 03:32:36;;;;;;;5.30;3.20;;;;;;;7.04;59.98;94697.77;106631;1275;25295;-73
2024/02/23 03:35:08;;;;;;;5.40;3.60;;;;;;;7.17;58.71;94700.17;106591;1274;22541;-73
2024/02/23 03:37:37;;;;;;;5.00;3.80;;;;;;;7.27;58.55;94702.23;106785;1275;25279;-73
2024/02/23 03:40:06;;;;;;;5.00;3.70;;;;;;;7.32;58.80;94696.89;106625;1275;22538;-73
2024/02/23 03:42:35;;;;;;;5.40;3.40;;;;;;;7.31;58.85;94698.68;106583;1275;23023;-73
2024/02/23 03:45:04;;;;;;;5.50;3.80;;;;;;;7.33;58.06;94696.86;106665;1275;23885;-73
2024/02/23 03:47:33;;;;;;;4.30;3.20;;;;;;;7.35;58.03;94696.30;106666;1272;22523;-73
2024/02/23 03:50:01;;;;;;;5.50;3.20;;;;;;;7.42;57.57;94698.60;106600;1275;25019;-73
2024/02/23 03:52:30;;;;;;;5.70;3.60;;;;;;;7.46;57.48;94700.98;106692;1275;23004;-73
2024/02/23 03:54:58;;;;;;;7.80;3.80;;;;;;;7.46;57.56;94696.60;106618;1276;22524;-73
2024/02/23 03:57:26;;;;;;;6.30;3.90;;;;;;;7.43;58.01;94706.65;106645;1275;24516;-73
2024/02/23 03:59:55;;;;;;;9.40;4.00;;;;;;;7.42;57.73;94705.98;106619;1275;22528;-73
2024/02/23 04:02:24;;;;;;;7.50;4.00;;;;;;;7.48;56.94;94709.32;106819;1274;22511;-73
2024/02/23 04:04:53;;;;;;;7.90;4.90;;;;;;;7.52;57.11;94711.17;106665;1275;24893;-73
2024/02/23 04:07:23;;;;;;;6.00;4.20;;;;;;;7.51;57.09;94714.35;106636;1275;24376;-73
2024/02/23 04:09:54;;;;;;;4.80;3.40;;;;;;;7.51;56.86;94715.91;106685;1274;25519;-72
2024/02/23 04:12:23;;;;;;;7.00;3.90;;;;;;;7.58;56.79;94715.25;106669;1275;22795;-72
2024/02/23 04:14:51;;;;;;;6.20;4.00;;;;;;;7.64;57.04;94712.52;106639;1274;23080;-72
2024/02/23 04:17:19;;;;;;;6.60;4.00;;;;;;;7.64;56.95;94725.80;106667;1275;25415;-72
2024/02/23 04:19:48;;;;;;;5.90;3.80;;;;;;;7.65;56.54;94722.97;106915;1274;25246;-72
2024/02/23 04:22:16;;;;;;;7.20;4.00;;;;;;;7.66;56.37;94726.64;106991;1274;25316;-72
2024/02/23 04:24:44;;;;;;;5.30;3.90;;;;;;;7.66;56.35;94724.52;106887;1275;22523;-73
2024/02/23 04:27:13;;;;;;;5.90;4.10;;;;;;;7.64;56.50;94726.33;106845;1274;24308;-72
2024/02/23 04:29:41;;;;;;;4.80;3.60;;;;;;;7.59;56.28;94719.41;107001;1274;22650;-72
2024/02/23 04:32:09;;;;;;;7.60;3.40;;;;;;;7.58;56.71;94720.50;106686;1274;24374;-72
2024/02/23 04:34:40;;;;;;;4.70;2.90;;;;;;;7.55;56.85;94716.71;106794;1274;25430;-72
2024/02/23 04:37:09;;;;;;;5.30;3.40;;;;;;;7.53;56.95;94718.86;106652;1274;22540;-72
2024/02/23 04:39:38;;;;;;;4.10;3.20;;;;;;;7.50;57.27;94711.04;106638;1274;24252;-73
2024/02/23 04:42:08;;;;;;;4.60;3.30;;;;;;;7.47;57.35;94708.11;106797;1274;24794;-72
2024/02/23 04:44:36;;;;;;;8.30;5.20;;;;;;;7.44;57.62;94710.11;106659;1274;25265;-72
2024/02/23 04:47:05;;;;;;;5.30;2.70;;;;;;;7.40;57.86;94708.44;106617;1274;22553;-72
2024/02/23 04:49:34;;;;;;;7.70;3.90;;;;;;;7.39;57.30;94707.07;106633;1274;25680;-73
2024/02/23 04:52:05;;;;;;;4.80;3.00;;;;;;;7.40;57.46;94718.42;106646;1274;22524;-72
2024/02/23 04:54:34;;;;;;;6.10;4.20;;;;;;;7.43;56.91;94713.80;106663;1269;25477;-72
2024/02/23 04:57:02;;;;;;;5.20;3.60;;;;;;;7.45;56.94;94713.60;106631;1264;24199;-73
2024/02/23 04:59:32;;;;;;;3.90;3.30;;;;;;;7.43;56.97;94713.83;106630;1274;25400;-72
2024/02/23 05:02:01;;;;;;;6.70;4.70;;;;;;;7.45;56.61;94715.69;106740;1274;22538;-72
2024/02/23 05:04:29;;;;;;;5.80;3.60;;;;;;;7.44;57.04;94715.19;106647;1274;22514;-72
2024/02/23 05:06:57;;;;;;;5.70;4.10;;;;;;;7.40;56.97;94717.02;106624;1275;22524;-72
2024/02/23 05:09:25;;;;;;;7.90;4.40;;;;;;;7.35;57.23;94717.63;106672;1274;23033;-72
2024/02/23 05:11:54;;;;;;;8.30;3.80;;;;;;;7.30;57.73;94722.83;106618;1275;22533;-72
2024/02/23 05:14:23;;;;;;;6.30;4.30;;;;;;;7.25;57.57;94720.14;106876;1274;22538;-72
2024/02/23 05:16:51;;;;;;;5.30;3.30;;;;;;;7.25;57.59;94714.35;106631;1274;22527;-72
2024/02/23 05:19:20;;;;;;;5.10;3.30;;;;;;;7.26;57.77;94717.66;106495;1274;25200;-72
2024/02/23 05:21:48;;;;;;;4.90;3.00;;;;;;;7.27;57.84;94723.23;106673;1274;24603;-73
2024/02/23 05:24:17;;;;;;;6.10;3.50;;;;;;;7.26;58.05;94721.34;106613;1274;22849;-73
2024/02/23 05:26:45;;;;;;;3.60;2.90;;;;;;;7.23;58.23;94720.52;106642;1275;25262;-73
2024/02/23 05:29:17;;;;;;;4.20;2.80;;;;;;;7.22;58.46;94721.59;106668;1274;25366;-73
2024/02/23 05:31:48;;;;;;;4.90;3.30;;;;;;;7.23;58.56;94718.95;106659;1272;22523;-72
2024/02/23 05:34:18;;;;;;;3.20;2.80;;;;;;;7.21;58.76;94723.70;106653;1274;24195;-72
2024/02/23 05:36:47;;;;;;;3.70;2.80;;;;;;;7.16;59.04;94729.20;106697;1274;25353;-73
2024/02/23 05:39:15;;;;;;;4.60;2.60;;;;;;;7.10;59.30;94728.61;106579;1275;23017;-72
2024/02/23 05:41:44;;;;;;;3.50;2.80;;;;;;;7.08;59.35;94731.46;106640;1274;27052;-72
2024/02/23 05:44:13;;;;;;;3.60;2.50;;;;;;;7.13;59.28;94730.14;106700;1275;24197;-73
2024/02/23 05:46:42;;;;;;;7.80;4.70;;;;;;;7.18;59.22;94728.83;106641;1274;22526;-72
2024/02/23 05:49:11;;;;;;;25.50;15.50;;;;;;;7.18;59.36;94719.55;106606;1275;22531;-73
2024/02/23 05:51:39;;;;;;;7.60;4.40;;;;;;;7.16;59.47;94727.64;106646;1274;22787;-72
2024/02/23 05:54:08;;;;;;;4.50;2.80;;;;;;;7.09;60.23;94738.27;106637;1274;22533;-72
2024/02/23 05:56:37;;;;;;;10.10;7.10;;;;;;;6.98;60.61;94735.67;106670;1274;22550;-73
2024/02/23 05:59:06;;;;;;;6.80;5.10;;;;;;;6.86;61.06;94736.95;106696;1275;23154;-73
2024/02/23 06:01:34;;;;;;;5.30;4.30;;;;;;;6.76;61.51;94745.67;106707;1274;22534;-73
2024/02/23 06:04:03;;;;;;;4.90;2.80;;;;;;;6.71;61.38;94749.77;106722;1275;22536;-73
2024/02/23 06:06:31;;;;;;;7.90;4.00;;;;;;;6.79;60.68;94755.59;106588;1275;24206;-72
2024/02/23 06:09:00;;;;;;;6.10;3.20;;;;;;;6.97;59.74;94756.33;106602;1275;22717;-72
2024/02/23 06:11:29;;;;;;;4.80;3.10;;;;;;;7.12;59.18;94756.91;106735;1275;24232;-72
2024/02/23 06:13:58;;;;;;;4.50;3.20;;;;;;;7.25;58.03;94753.88;106673;1275;25401;-72
2024/02/23 06:16:26;;;;;;;9.00;6.50;;;;;;;7.38;57.74;94747.86;106602;1275;25393;-72
2024/02/23 06:18:54;;;;;;;5.50;3.60;;;;;;;7.50;57.23;94753.21;106669;1275;22540;-72
2024/02/23 06:21:22;;;;;;;8.70;6.30;;;;;;;7.61;56.27;94750.53;106616;1275;22576;-72
2024/02/23 06:23:50;;;;;;;6.20;4.30;;;;;;;7.71;56.31;94748.94;106618;1275;22683;-72
2024/02/23 06:26:19;;;;;;;7.50;5.60;;;;;;;7.75;56.67;94753.03;106681;1275;25336;-73
2024/02/23 06:28:48;;;;;;;5.40;3.30;;;;;;;7.76;57.18;94755.13;106612;1275;22531;-72
2024/02/23 06:31:17;;;;;;;3.50;2.50;;;;;;;7.78;56.84;94760.67;106725;1274;22561;-72
2024/02/23 06:33:48;;;;;;;6.60;5.80;;;;;;;7.84;57.00;94760.39;106658;1275;22549;-73
2024/02/23 06:36:18;;;;;;;6.40;4.20;;;;;;;7.87;56.70;94764.52;106593;1275;22642;-73
2024/02/23 06:38:46;;;;;;;9.20;4.60;;;;;;;7.91;56.30;94770.74;106638;1275;24354;-72
2024/02/23 06:41:15;;;;;;;42.40;17.50;;;;;;;7.90;56.89;94776.55;106688;1275;22523;-73
2024/02/23 06:43:43;;;;;;;5.80;3.80;;;;;;;7.88;56.71;94775.20;106648;1275;22641;-72
2024/02/23 06:46:11;;;;;;;10.50;5.40;;;;;;;7.86;57.06;94777.86;106741;1275;25274;-73
2024/02/23 06:48:40;;;;;;;6.30;3.80;;;;;;;7.81;57.31;94773.58;107032;1275;25400;-73
2024/02/23 06:51:09;;;;;;;5.60;3.60;;;;;;;7.77;57.57;94772.61;106999;1275;22520;-72
2024/02/23 06:53:38;;;;;;;4.30;3.30;;;;;;;7.72;57.57;94774.80;106943;1275;22528;-72
2024/02/23 06:56:07;;;;;;;6.00;3.50;;;;;;;7.71;57.56;94771.17;106632;1275;24157;-73
2024/02/23 06:58:35;;;;;;;4.20;3.20;;;;;;;7.70;57.37;94775.39;106620;1275;25568;-73
2024/02/23 07:01:05;;;;;;;9.50;3.40;;;;;;;7.68;57.70;94781.02;106688;1275;24376;-73
2024/02/23 07:03:35;;;;;;;9.10;7.00;;;;;;;7.65;57.87;94780.21;106656;1275;22527;-72
2024/02/23 07:06:04;;;;;;;5.90;3.50;;;;;;;7.66;57.99;94777.40;106654;1275;25390;-73
2024/02/23 07:08:32;;;;;;;4.40;2.80;;;;;;;7.66;58.08;94778.62;106956;1275;24222;-73
2024/02/23 07:11:01;;;;;;;4.80;3.00;;;;;;;7.66;58.10;94774.23;106671;1275;24234;-72
2024/02/23 07:13:30;;;;;;;6.30;3.70;;;;;;;7.67;57.80;94765.98;106637;1275;24223;-73
2024/02/23 07:16:00;;;;;;;7.90;4.60;;;;;;;7.69;57.89;94762.83;106730;1275;25466;-73
2024/02/23 07:18:29;;;;;;;8.00;5.60;;;;;;;7.70;57.90;94758.41;106694;1275;26539;-72
2024/02/23 07:20:57;;;;;;;5.00;2.80;;;;;;;7.75;57.57;94767.23;106651;1275;22531;-72
2024/02/23 07:23:26;;;;;;;8.10;5.20;;;;;;;7.78;57.81;94767.50;106752;1275;22554;-73
2024/02/23 07:25:54;;;;;;;8.40;5.60;;;;;;;7.77;58.16;94764.04;106647;1275;23003;-73
2024/02/23 07:28:23;;;;;;;6.80;4.90;;;;;;;7.76;58.76;94767.55;106739;1275;22526;-73
2024/02/23 07:30:52;;;;;;;12.80;7.20;;;;;;;7.74;59.23;94770.75;106859;1275;22538;-72
2024/02/23 07:33:21;;;;;;;6.50;4.10;;;;;;;7.72;59.19;94767.11;107019;1275;22540;-73
2024/02/23 07:35:49;;;;;;;14.20;9.80;;;;;;;7.70;59.23;94766.63;106962;1275;22526;-73
2024/02/23 07:38:19;;;;;;;9.40;8.30;;;;;;;7.71;59.27;94764.16;106673;1275;22527;-73
2024/02/23 07:40:47;;;;;;;5.00;4.10;;;;;;;7.70;59.46;94765.21;106704;1275;23931;-73
2024/02/23 07:43:16;;;;;;;6.20;3.40;;;;;;;7.70;59.94;94771.36;106656;1275;22519;-73
2024/02/23 07:45:44;;;;;;;4.80;3.30;;;;;;;7.67;60.31;94772.47;106638;1275;22604;-73
2024/02/23 07:48:12;;;;;;;4.60;3.00;;;;;;;7.65;60.65;94772.69;106647;1275;22571;-73
2024/02/23 07:50:41;;;;;;;4.90;2.90;;;;;;;7.62;60.98;94770.30;106704;1275;25340;-72
2024/02/23 07:53:09;;;;;;;5.40;4.00;;;;;;;7.60;61.39;94769.64;106685;1275;25387;-73
2024/02/23 07:55:38;;;;;;;3.60;2.80;;;;;;;7.57;63.08;94775.13;106685;1275;22805;-72
2024/02/23 07:58:06;;;;;;;9.80;6.70;;;;;;;7.51;63.04;94773.14;106721;1275;25608;-73
2024/02/23 08:00:37;;;;;;;4.20;3.80;;;;;;;7.49;63.22;94775.98;106647;1275;24068;-73
2024/02/23 08:03:07;;;;;;;5.70;4.90;;;;;;;7.47;66.03;94782.51;106699;1274;23310;-73
2024/02/23 08:05:36;;;;;;;7.00;5.10;;;;;;;7.43;65.62;94782.23;106646;1275;24219;-73
2024/02/23 08:08:06;;;;;;;8.60;5.80;;;;;;;7.44;64.78;94781.51;106671;1275;24267;-73
2024/02/23 08:10:35;;;;;;;9.10;5.10;;;;;;;7.47;64.30;94782.66;106770;1275;24232;-73
2024/02/23 08:13:04;;;;;;;8.30;5.20;;;;;;;7.51;64.03;94776.11;106767;1275;22615;-73
2024/02/23 08:15:32;;;;;;;7.70;4.00;;;;;;;7.56;63.18;94780.39;106749;1275;22526;-73
2024/02/23 08:18:00;;;;;;;6.90;4.60;;;;;;;7.63;62.90;94784.63;106698;1275;23933;-73
2024/02/23 08:20:28;;;;;;;10.40;6.70;;;;;;;7.69;62.29;94780.65;106688;1275;22569;-73
2024/02/23 08:22:57;;;;;;;10.30;7.90;;;;;;;7.76;62.43;94780.33;106694;1274;25537;-73
2024/02/23 08:25:28;;;;;;;6.70;5.10;;;;;;;7.84;62.45;94772.98;106682;1275;24249;-73
2024/02/23 08:27:59;;;;;;;17.60;11.60;;;;;;;7.92;62.47;94776.69;106675;1274;22533;-73
2024/02/23 08:30:27;;;;;;;10.40;7.10;;;;;;;7.98;62.47;94779.52;106696;1275;22594;-73
2024/02/23 08:32:56;;;;;;;10.80;6.50;;;;;;;8.03;62.16;94782.56;106687;1274;24235;-73
2024/02/23 08:35:24;;;;;;;23.10;16.00;;;;;;;8.08;61.60;94790.16;106694;1274;25347;-73
2024/02/23 08:37:52;;;;;;;5.50;3.90;;;;;;;8.13;61.04;94789.19;106747;1274;24457;-73
2024/02/23 08:40:21;;;;;;;11.10;7.00;;;;;;;8.17;60.60;94792.08;106756;1274;25494;-73
2024/02/23 08:42:49;;;;;;;7.20;5.40;;;;;;;8.21;60.86;94798.11;106678;1274;25116;-73
2024/02/23 08:45:18;;;;;;;13.50;8.30;;;;;;;8.24;60.68;94792.96;106750;1274;22567;-74
2024/02/23 08:47:47;;;;;;;10.50;7.00;;;;;;;8.28;60.24;94793.07;106770;1274;25471;-73
2024/02/23 08:50:15;;;;;;;10.10;6.40;;;;;;;8.31;60.62;94801.03;106785;1274;22738;-73
2024/02/23 08:52:43;;;;;;;4.20;3.40;;;;;;;8.32;60.22;94798.73;106778;1274;25336;-72
2024/02/23 08:55:12;;;;;;;13.30;8.50;;;;;;;8.32;60.30;94797.16;106636;1274;22524;-73
2024/02/23 08:57:40;;;;;;;10.00;6.70;;;;;;;8.30;60.48;94793.89;106645;1274;25338;-73
2024/02/23 09:00:10;;;;;;;4.30;3.40;;;;;;;8.28;60.67;94798.83;106707;1274;22541;-74
2024/02/23 09:02:42;;;;;;;7.60;5.40;;;;;;;8.24;60.40;94801.88;106762;1274;22543;-73
2024/02/23 09:05:10;;;;;;;5.90;3.90;;;;;;;8.24;60.74;94806.11;106939;1275;22647;-73
2024/02/23 09:07:39;;;;;;;5.20;3.80;;;;;;;8.22;61.24;94809.66;106796;1274;22532;-73
2024/02/23 09:10:08;;;;;;;7.20;4.70;;;;;;;8.21;61.35;94807.58;106989;1274;22533;-73
2024/02/23 09:12:37;;;;;;;6.70;4.40;;;;;;;8.21;61.69;94812.98;106907;1274;22533;-73
2024/02/23 09:15:05;;;;;;;7.60;5.30;;;;;;;8.21;62.16;94814.23;107087;1274;24209;-73
2024/02/23 09:17:34;;;;;;;6.70;4.10;;;;;;;8.22;62.87;94818.76;106741;1274;24372;-73
2024/02/23 09:20:03;;;;;;;6.70;4.20;;;;;;;8.21;63.13;94820.53;106657;1274;25337;-73
2024/02/23 09:22:31;;;;;;;6.60;4.60;;;;;;;8.24;62.85;94826.42;106911;1274;25319;-73
2024/02/23 09:24:59;;;;;;;6.80;4.70;;;;;;;8.29;62.89;94827.02;106992;1274;22593;-73
2024/02/23 09:27:28;;;;;;;6.60;4.50;;;;;;;8.34;62.97;94822.71;106968;1274;22546;-73
2024/02/23 09:29:56;;;;;;;11.00;7.20;;;;;;;8.36;63.50;94819.32;107000;1274;24235;-73
2024/02/23 09:32:24;;;;;;;15.60;8.90;;;;;;;8.40;63.47;94824.35;107004;1274;25404;-73
2024/02/23 09:34:53;;;;;;;16.70;10.10;;;;;;;8.44;63.55;94815.33;106878;1274;23015;-73
2024/02/23 09:37:21;;;;;;;14.40;8.60;;;;;;;8.53;63.59;94816.88;106631;1274;25457;-73
2024/02/23 09:39:49;;;;;;;13.00;7.00;;;;;;;8.61;63.54;94810.72;106606;1274;25301;-73
2024/02/23 09:42:22;;;;;;;12.40;8.30;;;;;;;8.66;63.57;94809.02;106743;1274;25273;-73
2024/02/23 09:44:59;;;;;;;10.90;7.30;;;;;;;8.64;63.56;94799.77;106686;1274;24272;-73
2024/02/23 09:47:28;;;;;;;13.20;9.50;;;;;;;8.62;63.73;94802.63;106712;1274;24234;-73
2024/02/23 09:49:58;;;;;;;11.80;8.50;;;;;;;8.65;63.86;94808.89;106970;1274;25414;-73
2024/02/23 09:52:28;;;;;;;8.50;5.10;;;;;;;8.66;63.73;94800.43;106834;1274;22650;-73
2024/02/23 09:54:57;;;;;;;5.20;3.40;;;;;;;8.62;62.64;94798.61;106849;1274;22559;-73
2024/02/23 09:57:26;;;;;;;6.10;3.90;;;;;;;8.56;62.80;94798.58;106895;1274;22576;-73
2024/02/23 09:59:54;;;;;;;5.70;4.70;;;;;;;8.55;63.10;94802.27;106999;1274;25462;-73
2024/02/23 10:02:23;;;;;;;6.70;5.80;;;;;;;8.56;63.07;94802.26;107095;1274;24217;-74
2024/02/23 10:04:55;;;;;;;6.40;4.70;;;;;;;8.59;63.19;94807.09;106645;1275;25474;-73
2024/02/23 10:07:25;;;;;;;7.30;4.50;;;;;;;8.64;63.00;94805.23;106708;1275;23155;-73
2024/02/23 10:09:55;;;;;;;6.20;4.30;;;;;;;8.68;63.04;94806.36;106825;1274;22653;-73
2024/02/23 10:12:23;;;;;;;5.60;4.70;;;;;;;8.70;63.00;94808.77;106700;1274;25357;-73
2024/02/23 10:14:53;;;;;;;6.70;5.00;;;;;;;8.72;62.97;94803.80;106695;1274;22623;-73
2024/02/23 10:17:21;;;;;;;8.10;5.30;;;;;;;8.71;62.97;94805.73;106692;1274;25291;-73
2024/02/23 10:19:50;;;;;;;11.00;4.00;;;;;;;8.71;62.98;94807.88;106675;1274;24250;-73
2024/02/23 10:22:20;;;;;;;4.50;3.80;;;;;;;8.69;63.05;94801.78;106709;1274;23409;-73
2024/02/23 10:24:48;;;;;;;5.30;3.20;;;;;;;8.67;62.87;94797.97;106771;1275;22641;-73
2024/02/23 10:27:17;;;;;;;5.30;3.50;;;;;;;8.66;62.84;94796.41;106595;1274;22701;-73
2024/02/23 10:29:50;;;;;;;5.70;3.60;;;;;;;8.65;62.87;94801.14;106723;1274;22678;-73
2024/02/23 10:32:21;;;;;;;5.40;3.80;;;;;;;8.66;63.00;94796.75;106762;1275;24266;-73
2024/02/23 10:34:52;;;;;;;7.30;3.50;;;;;;;8.66;63.17;94797.27;106779;1275;24413;-74
2024/02/23 10:37:23;;;;;;;8.20;3.60;;;;;;;8.67;63.16;94793.23;106650;1275;24358;-73
2024/02/23 10:39:57;;;;;;;4.90;3.40;;;;;;;8.68;63.20;94799.18;106706;1275;22529;-73
2024/02/23 10:42:33;;;;;;;10.40;3.80;;;;;;;8.66;63.26;94799.73;106702;1270;22552;-73
2024/02/23 10:45:03;;;;;;;17.90;4.40;;;;;;;8.64;63.32;94800.83;106742;1275;22643;-73
2024/02/23 10:47:33;;;;;;;5.90;3.90;;;;;;;8.63;63.39;94806.13;106781;1275;22751;-73
2024/02/23 10:50:02;;;;;;;8.70;4.30;;;;;;;8.60;63.23;94803.91;106645;1275;25337;-73
2024/02/23 10:52:32;;;;;;;6.00;5.20;;;;;;;8.57;63.08;94803.47;106809;1275;25342;-73
2024/02/23 10:55:04;;;;;;;8.20;6.40;;;;;;;8.54;63.17;94806.87;106698;1275;24210;-73
2024/02/23 10:57:34;;;;;;;11.70;9.50;;;;;;;8.52;63.16;94803.95;106741;1275;24356;-73
2024/02/23 11:00:09;;;;;;;19.00;12.20;;;;;;;8.48;63.30;94802.98;106805;1275;25226;-73
2024/02/23 11:02:52;;;;;;;9.30;6.60;;;;;;;8.45;63.32;94802.51;106623;1273;24253;-73
2024/02/23 11:05:20;;;;;;;10.30;5.70;;;;;;;8.41;63.15;94807.50;106712;1275;22534;-73
2024/02/23 11:07:50;;;;;;;9.20;6.20;;;;;;;8.39;63.16;94804.91;106673;1275;22792;-73
2024/02/23 11:10:25;;;;;;;15.60;8.80;;;;;;;8.38;63.21;94802.12;106725;1271;22541;-73
2024/02/23 11:13:02;;;;;;;8.60;6.00;;;;;;;8.36;63.35;94800.93;106758;1275;22570;-73
2024/02/23 11:15:33;;;;;;;11.50;7.00;;;;;;;8.33;63.56;94801.71;106720;1274;22533;-73
2024/02/23 11:18:01;;;;;;;25.70;13.20;;;;;;;8.31;63.69;94801.56;106612;1275;22626;-73
2024/02/23 11:20:37;;;;;;;10.90;7.00;;;;;;;8.29;63.52;94789.19;106783;1264;22520;-73
2024/02/23 11:23:14;;;;;;;13.00;7.00;;;;;;;8.25;63.63;94789.09;106747;1275;25353;-73
2024/02/23 11:25:42;;;;;;;13.10;8.20;;;;;;;8.24;63.72;94786.14;106648;1276;22525;-73
2024/02/23 11:28:22;;;;;;;13.10;7.90;;;;;;;8.23;63.82;94790.89;106740;1270;22540;-73
2024/02/23 11:30:52;;;;;;;11.70;6.30;;;;;;;8.21;63.88;94792.51;106597;1276;22534;-73
2024/02/23 11:33:27;;;;;;;13.90;7.10;;;;;;;8.20;63.82;94797.79;106626;1276;22569;-73
2024/02/23 11:36:09;;;;;;;10.60;7.30;;;;;;;8.20;63.57;94793.05;106673;1276;22526;-73
2024/02/23 11:38:39;;;;;;;10.20;5.70;;;;;;;8.21;63.16;94789.70;106630;1276;22551;-73
2024/02/23 11:41:08;;;;;;;10.40;6.40;;;;;;;8.25;62.93;94783.84;106253;1276;626155;-73